sensor_id;sensor_type;location;lat;lon;timestamp;P1;durP1;ratioP1;P2;durP2;ratioP2
33162;SDS011;29282;45.656;11.302;2022-09-09T00:09:35;3.47;;;2.50;;
33162;SDS011;29282;45.656;11.302;2022-09-09T00:12:11;3.45;;;2.20;;
33162;SDS011;29282;45.656;11.302;2022-09-09T00:14:45;3.55;;;2.10;;
33162;SDS011;29282;45.656;11.302;2022-09-09T00:17:28;2.63;;;2.15;;
33162;SDS011;29282;45.656;11.302;2022-09-09T00:23:17;3.88;;;2.25;;
33162;SDS011;29282;45.656;11.302;2022-09-09T00:31:35;4.60;;;2.15;;
33162;SDS011;29282;45.656;11.302;2022-09-09T00:34:08;2.22;;;2.10;;
33162;SDS011;29282;45.656;11.302;2022-09-09T00:36:41;3.00;;;2.05;;
33162;SDS011;29282;45.656;11.302;2022-09-09T00:39:25;3.28;;;1.95;;
33162;SDS011;29282;45.656;11.302;2022-09-09T00:44:55;4.10;;;1.98;;
33162;SDS011;29282;45.656;11.302;2022-09-09T00:56:08;4.72;;;2.40;;
33162;SDS011;29282;45.656;11.302;2022-09-09T00:58:42;3.08;;;1.67;;
33162;SDS011;29282;45.656;11.302;2022-09-09T01:01:13;3.03;;;2.00;;
33162;SDS011;29282;45.656;11.302;2022-09-09T01:17:08;2.15;;;1.88;;
33162;SDS011;29282;45.656;11.302;2022-09-09T01:25:13;2.00;;;1.70;;
33162;SDS011;29282;45.656;11.302;2022-09-09T01:27:40;3.45;;;2.38;;
33162;SDS011;29282;45.656;11.302;2022-09-09T01:30:10;4.55;;;2.28;;
33162;SDS011;29282;45.656;11.302;2022-09-09T01:32:42;2.67;;;1.90;;
33162;SDS011;29282;45.656;11.302;2022-09-09T01:37:49;2.15;;;1.95;;
33162;SDS011;29282;45.656;11.302;2022-09-09T01:40:15;2.75;;;1.77;;
33162;SDS011;29282;45.656;11.302;2022-09-09T01:42:40;6.55;;;2.28;;
33162;SDS011;29282;45.656;11.302;2022-09-09T01:45:06;2.33;;;2.13;;
33162;SDS011;29282;45.656;11.302;2022-09-09T01:47:32;2.65;;;1.88;;
33162;SDS011;29282;45.656;11.302;2022-09-09T01:49:58;4.28;;;1.70;;
33162;SDS011;29282;45.656;11.302;2022-09-09T01:52:24;2.47;;;2.00;;
33162;SDS011;29282;45.656;11.302;2022-09-09T01:54:50;2.40;;;1.95;;
33162;SDS011;29282;45.656;11.302;2022-09-09T02:07:50;3.67;;;1.67;;
33162;SDS011;29282;45.656;11.302;2022-09-09T02:10:30;2.00;;;1.77;;
33162;SDS011;29282;45.656;11.302;2022-09-09T02:13:05;2.25;;;1.90;;
33162;SDS011;29282;45.656;11.302;2022-09-09T02:15:45;4.55;;;2.25;;
33162;SDS011;29282;45.656;11.302;2022-09-09T02:18:21;2.15;;;1.85;;
33162;SDS011;29282;45.656;11.302;2022-09-09T02:20:52;2.28;;;1.80;;
33162;SDS011;29282;45.656;11.302;2022-09-09T02:23:19;2.25;;;1.92;;
33162;SDS011;29282;45.656;11.302;2022-09-09T02:25:45;4.80;;;2.00;;
33162;SDS011;29282;45.656;11.302;2022-09-09T02:28:13;2.53;;;2.08;;
33162;SDS011;29282;45.656;11.302;2022-09-09T02:30:42;3.67;;;1.77;;
33162;SDS011;29282;45.656;11.302;2022-09-09T02:33:10;4.88;;;2.15;;
33162;SDS011;29282;45.656;11.302;2022-09-09T02:35:41;2.70;;;1.90;;
33162;SDS011;29282;45.656;11.302;2022-09-09T02:38:09;2.28;;;1.60;;
33162;SDS011;29282;45.656;11.302;2022-09-09T02:40:37;2.10;;;1.90;;
33162;SDS011;29282;45.656;11.302;2022-09-09T02:43:06;3.80;;;1.98;;
33162;SDS011;29282;45.656;11.302;2022-09-09T02:45:36;2.55;;;1.83;;
33162;SDS011;29282;45.656;11.302;2022-09-09T02:48:20;2.90;;;1.85;;
33162;SDS011;29282;45.656;11.302;2022-09-09T02:53:43;2.63;;;2.20;;
33162;SDS011;29282;45.656;11.302;2022-09-09T02:56:29;2.30;;;1.45;;
33162;SDS011;29282;45.656;11.302;2022-09-09T02:59:02;2.58;;;2.00;;
33162;SDS011;29282;45.656;11.302;2022-09-09T03:01:29;2.67;;;2.05;;
33162;SDS011;29282;45.656;11.302;2022-09-09T03:03:54;3.10;;;2.10;;
33162;SDS011;29282;45.656;11.302;2022-09-09T03:06:20;2.20;;;1.90;;
33162;SDS011;29282;45.656;11.302;2022-09-09T03:08:45;2.17;;;1.80;;
33162;SDS011;29282;45.656;11.302;2022-09-09T03:11:11;2.58;;;1.88;;
33162;SDS011;29282;45.656;11.302;2022-09-09T03:13:37;3.13;;;1.90;;
33162;SDS011;29282;45.656;11.302;2022-09-09T03:16:03;2.22;;;1.70;;
33162;SDS011;29282;45.656;11.302;2022-09-09T03:18:32;2.65;;;2.17;;
33162;SDS011;29282;45.656;11.302;2022-09-09T03:20:59;2.03;;;1.83;;
33162;SDS011;29282;45.656;11.302;2022-09-09T03:23:25;2.38;;;1.98;;
33162;SDS011;29282;45.656;11.302;2022-09-09T03:25:51;2.15;;;1.67;;
33162;SDS011;29282;45.656;11.302;2022-09-09T03:28:18;2.17;;;1.83;;
33162;SDS011;29282;45.656;11.302;2022-09-09T03:30:47;2.28;;;2.00;;
33162;SDS011;29282;45.656;11.302;2022-09-09T03:33:12;3.63;;;1.60;;
33162;SDS011;29282;45.656;11.302;2022-09-09T03:35:37;2.20;;;1.92;;
33162;SDS011;29282;45.656;11.302;2022-09-09T03:38:04;2.38;;;2.05;;
33162;SDS011;29282;45.656;11.302;2022-09-09T03:40:30;1.90;;;1.70;;
33162;SDS011;29282;45.656;11.302;2022-09-09T03:42:56;2.13;;;1.92;;
33162;SDS011;29282;45.656;11.302;2022-09-09T03:45:21;2.58;;;1.95;;
33162;SDS011;29282;45.656;11.302;2022-09-09T03:47:47;2.55;;;1.98;;
33162;SDS011;29282;45.656;11.302;2022-09-09T03:50:12;3.63;;;2.08;;
33162;SDS011;29282;45.656;11.302;2022-09-09T03:52:38;2.03;;;1.73;;
33162;SDS011;29282;45.656;11.302;2022-09-09T03:55:06;2.47;;;2.00;;
33162;SDS011;29282;45.656;11.302;2022-09-09T03:57:32;2.15;;;1.90;;
33162;SDS011;29282;45.656;11.302;2022-09-09T04:00:04;2.58;;;2.00;;
33162;SDS011;29282;45.656;11.302;2022-09-09T04:02:32;2.38;;;1.80;;
33162;SDS011;29282;45.656;11.302;2022-09-09T04:04:57;3.47;;;1.80;;
33162;SDS011;29282;45.656;11.302;2022-09-09T04:07:23;2.28;;;2.00;;
33162;SDS011;29282;45.656;11.302;2022-09-09T04:09:48;4.05;;;1.90;;
33162;SDS011;29282;45.656;11.302;2022-09-09T04:12:14;2.90;;;1.88;;
33162;SDS011;29282;45.656;11.302;2022-09-09T04:14:39;2.03;;;1.83;;
33162;SDS011;29282;45.656;11.302;2022-09-09T04:17:05;2.08;;;1.80;;
33162;SDS011;29282;45.656;11.302;2022-09-09T04:19:31;2.55;;;1.90;;
33162;SDS011;29282;45.656;11.302;2022-09-09T04:21:57;3.13;;;1.83;;
33162;SDS011;29282;45.656;11.302;2022-09-09T04:24:23;3.63;;;2.15;;
33162;SDS011;29282;45.656;11.302;2022-09-09T04:26:54;3.17;;;2.17;;
33162;SDS011;29282;45.656;11.302;2022-09-09T04:29:20;3.65;;;2.05;;
33162;SDS011;29282;45.656;11.302;2022-09-09T04:31:46;2.30;;;2.10;;
33162;SDS011;29282;45.656;11.302;2022-09-09T04:34:11;3.65;;;1.95;;
33162;SDS011;29282;45.656;11.302;2022-09-09T04:36:37;5.28;;;2.13;;
33162;SDS011;29282;45.656;11.302;2022-09-09T04:39:02;5.65;;;2.30;;
33162;SDS011;29282;45.656;11.302;2022-09-09T04:41:28;4.43;;;2.20;;
33162;SDS011;29282;45.656;11.302;2022-09-09T04:43:53;4.43;;;1.98;;
33162;SDS011;29282;45.656;11.302;2022-09-09T04:46:22;7.10;;;2.20;;
33162;SDS011;29282;45.656;11.302;2022-09-09T04:48:48;5.47;;;2.70;;
33162;SDS011;29282;45.656;11.302;2022-09-09T04:51:15;6.63;;;2.53;;
33162;SDS011;29282;45.656;11.302;2022-09-09T04:53:41;4.07;;;2.17;;
33162;SDS011;29282;45.656;11.302;2022-09-09T04:56:10;10.88;;;2.28;;
33162;SDS011;29282;45.656;11.302;2022-09-09T04:58:38;4.95;;;2.30;;
33162;SDS011;29282;45.656;11.302;2022-09-09T05:03:34;5.40;;;2.60;;
33162;SDS011;29282;45.656;11.302;2022-09-09T05:06:16;10.38;;;2.55;;
33162;SDS011;29282;45.656;11.302;2022-09-09T05:08:43;8.35;;;2.22;;
33162;SDS011;29282;45.656;11.302;2022-09-09T05:11:28;5.05;;;2.33;;
33162;SDS011;29282;45.656;11.302;2022-09-09T05:13:55;5.25;;;2.45;;
33162;SDS011;29282;45.656;11.302;2022-09-09T05:16:24;5.10;;;2.25;;
33162;SDS011;29282;45.656;11.302;2022-09-09T05:18:49;4.57;;;2.17;;
33162;SDS011;29282;45.656;11.302;2022-09-09T05:21:19;3.92;;;2.25;;
33162;SDS011;29282;45.656;11.302;2022-09-09T05:23:46;6.15;;;2.72;;
33162;SDS011;29282;45.656;11.302;2022-09-09T05:26:12;6.50;;;2.22;;
33162;SDS011;29282;45.656;11.302;2022-09-09T05:28:40;5.05;;;2.70;;
33162;SDS011;29282;45.656;11.302;2022-09-09T05:31:06;3.90;;;2.13;;
33162;SDS011;29282;45.656;11.302;2022-09-09T05:33:33;4.75;;;2.25;;
33162;SDS011;29282;45.656;11.302;2022-09-09T05:36:01;6.82;;;2.20;;
33162;SDS011;29282;45.656;11.302;2022-09-09T05:38:29;2.85;;;2.10;;
33162;SDS011;29282;45.656;11.302;2022-09-09T05:40:56;5.32;;;2.50;;
33162;SDS011;29282;45.656;11.302;2022-09-09T05:43:22;3.60;;;2.50;;
33162;SDS011;29282;45.656;11.302;2022-09-09T05:45:58;3.95;;;2.40;;
33162;SDS011;29282;45.656;11.302;2022-09-09T05:48:33;8.52;;;2.47;;
33162;SDS011;29282;45.656;11.302;2022-09-09T05:51:01;3.83;;;2.10;;
33162;SDS011;29282;45.656;11.302;2022-09-09T05:53:27;2.65;;;2.03;;
33162;SDS011;29282;45.656;11.302;2022-09-09T05:58:28;5.57;;;2.42;;
33162;SDS011;29282;45.656;11.302;2022-09-09T06:01:05;4.45;;;1.92;;
33162;SDS011;29282;45.656;11.302;2022-09-09T06:03:39;5.07;;;2.10;;
33162;SDS011;29282;45.656;11.302;2022-09-09T06:06:07;5.20;;;2.25;;
33162;SDS011;29282;45.656;11.302;2022-09-09T06:08:35;3.60;;;2.30;;
33162;SDS011;29282;45.656;11.302;2022-09-09T06:11:12;2.83;;;2.08;;
33162;SDS011;29282;45.656;11.302;2022-09-09T06:13:40;5.05;;;2.10;;
33162;SDS011;29282;45.656;11.302;2022-09-09T06:16:08;4.47;;;2.30;;
33162;SDS011;29282;45.656;11.302;2022-09-09T06:18:36;4.82;;;2.30;;
33162;SDS011;29282;45.656;11.302;2022-09-09T06:21:03;4.28;;;2.33;;
33162;SDS011;29282;45.656;11.302;2022-09-09T06:23:31;2.97;;;2.08;;
33162;SDS011;29282;45.656;11.302;2022-09-09T06:26:18;3.95;;;1.95;;
33162;SDS011;29282;45.656;11.302;2022-09-09T06:28:45;8.68;;;2.33;;
33162;SDS011;29282;45.656;11.302;2022-09-09T06:31:13;6.25;;;2.45;;
33162;SDS011;29282;45.656;11.302;2022-09-09T06:33:42;6.65;;;2.45;;
33162;SDS011;29282;45.656;11.302;2022-09-09T06:36:11;4.38;;;2.20;;
33162;SDS011;29282;45.656;11.302;2022-09-09T06:38:38;4.35;;;2.30;;
33162;SDS011;29282;45.656;11.302;2022-09-09T06:41:07;5.32;;;2.00;;
33162;SDS011;29282;45.656;11.302;2022-09-09T06:43:34;5.78;;;2.03;;
33162;SDS011;29282;45.656;11.302;2022-09-09T06:46:10;3.00;;;1.95;;
33162;SDS011;29282;45.656;11.302;2022-09-09T06:48:40;2.45;;;2.00;;
33162;SDS011;29282;45.656;11.302;2022-09-09T06:53:34;4.45;;;2.20;;
33162;SDS011;29282;45.656;11.302;2022-09-09T06:58:42;2.78;;;2.30;;
33162;SDS011;29282;45.656;11.302;2022-09-09T07:01:10;5.53;;;2.10;;
33162;SDS011;29282;45.656;11.302;2022-09-09T07:03:39;5.35;;;2.00;;
33162;SDS011;29282;45.656;11.302;2022-09-09T07:06:08;4.35;;;2.25;;
33162;SDS011;29282;45.656;11.302;2022-09-09T07:08:39;7.20;;;2.47;;
33162;SDS011;29282;45.656;11.302;2022-09-09T07:11:05;2.47;;;1.98;;
33162;SDS011;29282;45.656;11.302;2022-09-09T07:13:32;4.43;;;2.10;;
33162;SDS011;29282;45.656;11.302;2022-09-09T07:16:04;6.90;;;2.33;;
33162;SDS011;29282;45.656;11.302;2022-09-09T07:18:31;5.18;;;2.30;;
33162;SDS011;29282;45.656;11.302;2022-09-09T07:20:56;5.95;;;2.45;;
33162;SDS011;29282;45.656;11.302;2022-09-09T07:23:23;5.60;;;2.00;;
33162;SDS011;29282;45.656;11.302;2022-09-09T07:25:49;7.57;;;2.28;;
33162;SDS011;29282;45.656;11.302;2022-09-09T07:28:15;3.50;;;2.03;;
33162;SDS011;29282;45.656;11.302;2022-09-09T07:30:52;7.07;;;2.40;;
33162;SDS011;29282;45.656;11.302;2022-09-09T07:35:45;6.35;;;2.20;;
33162;SDS011;29282;45.656;11.302;2022-09-09T07:38:10;4.10;;;2.00;;
33162;SDS011;29282;45.656;11.302;2022-09-09T07:40:36;2.95;;;2.20;;
33162;SDS011;29282;45.656;11.302;2022-09-09T07:43:02;4.53;;;2.33;;
33162;SDS011;29282;45.656;11.302;2022-09-09T07:45:28;3.28;;;2.10;;
33162;SDS011;29282;45.656;11.302;2022-09-09T07:47:54;5.57;;;2.15;;
33162;SDS011;29282;45.656;11.302;2022-09-09T07:50:22;5.07;;;2.40;;
33162;SDS011;29282;45.656;11.302;2022-09-09T07:52:48;4.93;;;2.10;;
33162;SDS011;29282;45.656;11.302;2022-09-09T07:55:14;11.23;;;2.25;;
33162;SDS011;29282;45.656;11.302;2022-09-09T07:57:40;5.32;;;2.10;;
33162;SDS011;29282;45.656;11.302;2022-09-09T08:00:06;10.20;;;2.55;;
33162;SDS011;29282;45.656;11.302;2022-09-09T08:02:31;7.43;;;2.55;;
33162;SDS011;29282;45.656;11.302;2022-09-09T08:04:57;7.20;;;2.35;;
33162;SDS011;29282;45.656;11.302;2022-09-09T08:07:22;4.97;;;2.25;;
33162;SDS011;29282;45.656;11.302;2022-09-09T08:09:48;3.90;;;2.15;;
33162;SDS011;29282;45.656;11.302;2022-09-09T08:12:14;8.73;;;2.10;;
33162;SDS011;29282;45.656;11.302;2022-09-09T08:14:41;4.28;;;2.08;;
33162;SDS011;29282;45.656;11.302;2022-09-09T08:17:07;3.25;;;2.03;;
33162;SDS011;29282;45.656;11.302;2022-09-09T08:19:32;5.85;;;1.98;;
33162;SDS011;29282;45.656;11.302;2022-09-09T08:22:00;3.63;;;2.08;;
33162;SDS011;29282;45.656;11.302;2022-09-09T08:24:27;5.38;;;2.22;;
33162;SDS011;29282;45.656;11.302;2022-09-09T08:26:53;4.00;;;2.03;;
33162;SDS011;29282;45.656;11.302;2022-09-09T08:29:19;5.65;;;2.00;;
33162;SDS011;29282;45.656;11.302;2022-09-09T08:31:45;4.15;;;2.38;;
33162;SDS011;29282;45.656;11.302;2022-09-09T08:34:12;3.63;;;2.63;;
33162;SDS011;29282;45.656;11.302;2022-09-09T08:36:42;4.15;;;2.40;;
33162;SDS011;29282;45.656;11.302;2022-09-09T08:39:10;6.25;;;2.22;;
33162;SDS011;29282;45.656;11.302;2022-09-09T09:00:56;2.53;;;1.92;;
33162;SDS011;29282;45.656;11.302;2022-09-09T09:06:56;3.72;;;2.13;;
33162;SDS011;29282;45.656;11.302;2022-09-09T09:12:24;3.58;;;1.80;;
33162;SDS011;29282;45.656;11.302;2022-09-09T09:14:54;4.65;;;2.50;;
33162;SDS011;29282;45.656;11.302;2022-09-09T09:17:21;3.05;;;1.88;;
33162;SDS011;29282;45.656;11.302;2022-09-09T09:19:51;3.13;;;2.03;;
33162;SDS011;29282;45.656;11.302;2022-09-09T09:22:20;3.33;;;2.17;;
33162;SDS011;29282;45.656;11.302;2022-09-09T09:27:40;3.58;;;2.00;;
33162;SDS011;29282;45.656;11.302;2022-09-09T09:30:18;5.07;;;2.03;;
33162;SDS011;29282;45.656;11.302;2022-09-09T09:32:54;2.70;;;1.95;;
33162;SDS011;29282;45.656;11.302;2022-09-09T09:35:25;3.72;;;1.90;;
33162;SDS011;29282;45.656;11.302;2022-09-09T09:37:50;2.30;;;1.90;;
33162;SDS011;29282;45.656;11.302;2022-09-09T09:40:17;4.20;;;2.03;;
33162;SDS011;29282;45.656;11.302;2022-09-09T09:42:52;2.83;;;2.38;;
33162;SDS011;29282;45.656;11.302;2022-09-09T09:48:08;2.65;;;1.98;;
33162;SDS011;29282;45.656;11.302;2022-09-09T09:50:39;3.10;;;1.83;;
33162;SDS011;29282;45.656;11.302;2022-09-09T09:53:22;3.85;;;2.10;;
33162;SDS011;29282;45.656;11.302;2022-09-09T09:55:53;2.33;;;1.90;;
33162;SDS011;29282;45.656;11.302;2022-09-09T09:58:30;5.95;;;2.35;;
33162;SDS011;29282;45.656;11.302;2022-09-09T10:00:59;1.88;;;1.63;;
33162;SDS011;29282;45.656;11.302;2022-09-09T10:03:33;5.28;;;2.20;;
33162;SDS011;29282;45.656;11.302;2022-09-09T10:06:05;2.10;;;1.60;;
33162;SDS011;29282;45.656;11.302;2022-09-09T10:08:43;5.68;;;2.00;;
33162;SDS011;29282;45.656;11.302;2022-09-09T10:30:24;2.15;;;1.83;;
33162;SDS011;29282;45.656;11.302;2022-09-09T10:33:10;2.92;;;2.30;;
33162;SDS011;29282;45.656;11.302;2022-09-09T10:36:07;3.28;;;1.98;;
33162;SDS011;29282;45.656;11.302;2022-09-09T10:38:40;3.85;;;2.20;;
33162;SDS011;29282;45.656;11.302;2022-09-09T10:55:20;3.78;;;2.10;;
33162;SDS011;29282;45.656;11.302;2022-09-09T10:57:54;3.45;;;2.00;;
33162;SDS011;29282;45.656;11.302;2022-09-09T11:00:34;3.00;;;1.98;;
33162;SDS011;29282;45.656;11.302;2022-09-09T11:03:06;1.67;;;1.52;;
33162;SDS011;29282;45.656;11.302;2022-09-09T11:05:52;2.30;;;1.90;;
33162;SDS011;29282;45.656;11.302;2022-09-09T11:08:28;4.00;;;2.00;;
33162;SDS011;29282;45.656;11.302;2022-09-09T11:11:03;2.53;;;2.05;;
33162;SDS011;29282;45.656;11.302;2022-09-09T11:13:40;2.30;;;1.80;;
33162;SDS011;29282;45.656;11.302;2022-09-09T11:19:39;3.53;;;1.85;;
33162;SDS011;29282;45.656;11.302;2022-09-09T11:22:27;2.60;;;1.90;;
33162;SDS011;29282;45.656;11.302;2022-09-09T11:25:01;3.03;;;2.05;;
33162;SDS011;29282;45.656;11.302;2022-09-09T11:38:46;3.15;;;2.00;;
33162;SDS011;29282;45.656;11.302;2022-09-09T11:41:16;2.05;;;1.85;;
33162;SDS011;29282;45.656;11.302;2022-09-09T11:46:11;2.78;;;1.80;;
33162;SDS011;29282;45.656;11.302;2022-09-09T11:48:43;2.30;;;2.03;;
33162;SDS011;29282;45.656;11.302;2022-09-09T11:56:23;2.30;;;1.90;;
33162;SDS011;29282;45.656;11.302;2022-09-09T11:58:58;3.85;;;1.98;;
33162;SDS011;29282;45.656;11.302;2022-09-09T12:01:37;1.85;;;1.70;;
33162;SDS011;29282;45.656;11.302;2022-09-09T12:07:01;2.15;;;1.95;;
33162;SDS011;29282;45.656;11.302;2022-09-09T12:09:50;2.10;;;1.90;;
33162;SDS011;29282;45.656;11.302;2022-09-09T12:12:23;3.35;;;1.98;;
33162;SDS011;29282;45.656;11.302;2022-09-09T12:17:25;2.83;;;1.85;;
33162;SDS011;29282;45.656;11.302;2022-09-09T12:34:09;2.40;;;1.90;;
33162;SDS011;29282;45.656;11.302;2022-09-09T12:36:35;3.03;;;1.88;;
33162;SDS011;29282;45.656;11.302;2022-09-09T12:39:10;2.13;;;1.83;;
33162;SDS011;29282;45.656;11.302;2022-09-09T12:41:50;1.98;;;1.58;;
33162;SDS011;29282;45.656;11.302;2022-09-09T12:44:23;1.70;;;1.60;;
33162;SDS011;29282;45.656;11.302;2022-09-09T12:46:50;2.00;;;1.80;;
33162;SDS011;29282;45.656;11.302;2022-09-09T12:49:28;3.15;;;1.77;;
33162;SDS011;29282;45.656;11.302;2022-09-09T12:51:56;2.38;;;1.70;;
33162;SDS011;29282;45.656;11.302;2022-09-09T12:54:22;2.17;;;1.80;;
33162;SDS011;29282;45.656;11.302;2022-09-09T12:56:48;2.60;;;1.65;;
33162;SDS011;29282;45.656;11.302;2022-09-09T13:04:45;1.80;;;1.70;;
33162;SDS011;29282;45.656;11.302;2022-09-09T13:07:12;1.85;;;1.75;;
33162;SDS011;29282;45.656;11.302;2022-09-09T13:09:39;2.20;;;1.70;;
33162;SDS011;29282;45.656;11.302;2022-09-09T13:12:05;2.25;;;1.70;;
33162;SDS011;29282;45.656;11.302;2022-09-09T13:14:39;1.80;;;1.70;;
33162;SDS011;29282;45.656;11.302;2022-09-09T13:17:19;2.05;;;1.85;;
33162;SDS011;29282;45.656;11.302;2022-09-09T13:19:46;1.58;;;1.48;;
33162;SDS011;29282;45.656;11.302;2022-09-09T13:25:38;2.30;;;1.58;;
33162;SDS011;29282;45.656;11.302;2022-09-09T13:28:03;2.13;;;1.80;;
33162;SDS011;29282;45.656;11.302;2022-09-09T13:30:54;4.65;;;1.60;;
33162;SDS011;29282;45.656;11.302;2022-09-09T13:33:24;1.80;;;1.63;;
33162;SDS011;29282;45.656;11.302;2022-09-09T13:38:21;2.00;;;1.80;;
33162;SDS011;29282;45.656;11.302;2022-09-09T13:40:57;1.75;;;1.65;;
33162;SDS011;29282;45.656;11.302;2022-09-09T13:43:27;1.98;;;1.65;;
33162;SDS011;29282;45.656;11.302;2022-09-09T13:45:57;2.83;;;1.58;;
33162;SDS011;29282;45.656;11.302;2022-09-09T13:48:25;1.70;;;1.60;;
33162;SDS011;29282;45.656;11.302;2022-09-09T13:50:58;2.15;;;1.90;;
33162;SDS011;29282;45.656;11.302;2022-09-09T13:53:30;1.70;;;1.55;;
33162;SDS011;29282;45.656;11.302;2022-09-09T13:55:56;1.55;;;1.45;;
33162;SDS011;29282;45.656;11.302;2022-09-09T13:58:23;1.98;;;1.60;;
33162;SDS011;29282;45.656;11.302;2022-09-09T14:00:50;2.45;;;1.70;;
33162;SDS011;29282;45.656;11.302;2022-09-09T14:03:16;1.67;;;1.40;;
33162;SDS011;29282;45.656;11.302;2022-09-09T14:05:42;1.50;;;1.33;;
33162;SDS011;29282;45.656;11.302;2022-09-09T14:08:15;1.70;;;1.60;;
33162;SDS011;29282;45.656;11.302;2022-09-09T14:10:46;1.85;;;1.67;;
33162;SDS011;29282;45.656;11.302;2022-09-09T14:13:12;1.70;;;1.60;;
33162;SDS011;29282;45.656;11.302;2022-09-09T14:15:40;3.03;;;1.60;;
33162;SDS011;29282;45.656;11.302;2022-09-09T14:18:08;2.47;;;1.67;;
33162;SDS011;29282;45.656;11.302;2022-09-09T14:20:36;2.60;;;1.42;;
33162;SDS011;29282;45.656;11.302;2022-09-09T14:23:02;2.20;;;1.70;;
33162;SDS011;29282;45.656;11.302;2022-09-09T14:25:27;1.70;;;1.60;;
33162;SDS011;29282;45.656;11.302;2022-09-09T14:27:53;1.63;;;1.50;;
33162;SDS011;29282;45.656;11.302;2022-09-09T14:30:19;2.03;;;1.60;;
33162;SDS011;29282;45.656;11.302;2022-09-09T14:32:44;1.40;;;1.30;;
33162;SDS011;29282;45.656;11.302;2022-09-09T14:35:10;1.67;;;1.50;;
33162;SDS011;29282;45.656;11.302;2022-09-09T14:37:36;2.65;;;1.70;;
33162;SDS011;29282;45.656;11.302;2022-09-09T14:40:04;2.15;;;1.40;;
33162;SDS011;29282;45.656;11.302;2022-09-09T14:42:29;1.63;;;1.52;;
33162;SDS011;29282;45.656;11.302;2022-09-09T14:44:55;1.63;;;1.52;;
33162;SDS011;29282;45.656;11.302;2022-09-09T14:47:20;3.22;;;1.60;;
33162;SDS011;29282;45.656;11.302;2022-09-09T14:49:47;2.67;;;1.63;;
33162;SDS011;29282;45.656;11.302;2022-09-09T14:52:14;1.90;;;1.70;;
33162;SDS011;29282;45.656;11.302;2022-09-09T14:54:40;2.03;;;1.60;;
33162;SDS011;29282;45.656;11.302;2022-09-09T14:57:05;3.50;;;1.70;;
33162;SDS011;29282;45.656;11.302;2022-09-09T14:59:31;3.10;;;1.48;;
33162;SDS011;29282;45.656;11.302;2022-09-09T15:01:56;1.58;;;1.48;;
33162;SDS011;29282;45.656;11.302;2022-09-09T15:04:22;3.70;;;1.50;;
33162;SDS011;29282;45.656;11.302;2022-09-09T15:06:47;3.60;;;1.60;;
33162;SDS011;29282;45.656;11.302;2022-09-09T15:09:15;5.75;;;1.60;;
33162;SDS011;29282;45.656;11.302;2022-09-09T15:11:40;4.18;;;1.60;;
33162;SDS011;29282;45.656;11.302;2022-09-09T15:14:07;4.35;;;1.60;;
33162;SDS011;29282;45.656;11.302;2022-09-09T15:16:33;4.20;;;1.70;;
33162;SDS011;29282;45.656;11.302;2022-09-09T15:19:00;1.80;;;1.70;;
33162;SDS011;29282;45.656;11.302;2022-09-09T15:21:27;3.30;;;1.60;;
33162;SDS011;29282;45.656;11.302;2022-09-09T15:23:55;4.15;;;1.75;;
33162;SDS011;29282;45.656;11.302;2022-09-09T15:26:22;4.05;;;1.65;;
33162;SDS011;29282;45.656;11.302;2022-09-09T15:28:48;3.10;;;1.83;;
33162;SDS011;29282;45.656;11.302;2022-09-09T15:31:15;2.88;;;1.50;;
33162;SDS011;29282;45.656;11.302;2022-09-09T15:33:49;1.75;;;1.60;;
33162;SDS011;29282;45.656;11.302;2022-09-09T15:36:20;2.45;;;1.45;;
33162;SDS011;29282;45.656;11.302;2022-09-09T15:38:48;2.55;;;1.70;;
33162;SDS011;29282;45.656;11.302;2022-09-09T15:41:13;3.20;;;1.55;;
33162;SDS011;29282;45.656;11.302;2022-09-09T15:43:43;1.77;;;1.65;;
33162;SDS011;29282;45.656;11.302;2022-09-09T15:48:42;1.83;;;1.58;;
33162;SDS011;29282;45.656;11.302;2022-09-09T15:51:11;2.53;;;1.40;;
33162;SDS011;29282;45.656;11.302;2022-09-09T15:53:38;3.70;;;1.60;;
33162;SDS011;29282;45.656;11.302;2022-09-09T15:56:04;2.22;;;1.60;;
33162;SDS011;29282;45.656;11.302;2022-09-09T15:58:32;2.58;;;1.77;;
33162;SDS011;29282;45.656;11.302;2022-09-09T16:01:04;5.18;;;1.90;;
33162;SDS011;29282;45.656;11.302;2022-09-09T16:03:40;2.53;;;1.60;;
33162;SDS011;29282;45.656;11.302;2022-09-09T16:06:07;3.78;;;1.60;;
33162;SDS011;29282;45.656;11.302;2022-09-09T16:08:40;2.00;;;1.50;;
33162;SDS011;29282;45.656;11.302;2022-09-09T16:11:08;2.17;;;1.45;;
33162;SDS011;29282;45.656;11.302;2022-09-09T16:13:34;3.13;;;1.60;;
33162;SDS011;29282;45.656;11.302;2022-09-09T16:16:04;13.80;;;2.20;;
33162;SDS011;29282;45.656;11.302;2022-09-09T16:18:41;3.38;;;1.70;;
33162;SDS011;29282;45.656;11.302;2022-09-09T16:21:20;2.97;;;1.50;;
33162;SDS011;29282;45.656;11.302;2022-09-09T16:23:46;5.93;;;1.90;;
33162;SDS011;29282;45.656;11.302;2022-09-09T16:26:15;3.03;;;1.70;;
33162;SDS011;29282;45.656;11.302;2022-09-09T16:28:42;2.72;;;1.50;;
33162;SDS011;29282;45.656;11.302;2022-09-09T16:31:09;5.13;;;1.80;;
33162;SDS011;29282;45.656;11.302;2022-09-09T16:33:36;3.78;;;1.77;;
33162;SDS011;29282;45.656;11.302;2022-09-09T16:36:09;4.82;;;1.80;;
33162;SDS011;29282;45.656;11.302;2022-09-09T16:38:40;2.63;;;1.65;;
33162;SDS011;29282;45.656;11.302;2022-09-09T16:41:06;1.88;;;1.25;;
33162;SDS011;29282;45.656;11.302;2022-09-09T16:43:33;4.65;;;1.60;;
33162;SDS011;29282;45.656;11.302;2022-09-09T16:46:00;3.38;;;1.73;;
33162;SDS011;29282;45.656;11.302;2022-09-09T16:48:30;1.55;;;1.40;;
33162;SDS011;29282;45.656;11.302;2022-09-09T16:51:04;2.10;;;1.50;;
33162;SDS011;29282;45.656;11.302;2022-09-09T16:53:32;2.05;;;1.40;;
33162;SDS011;29282;45.656;11.302;2022-09-09T16:56:07;2.13;;;1.73;;
33162;SDS011;29282;45.656;11.302;2022-09-09T16:58:33;2.80;;;1.45;;
33162;SDS011;29282;45.656;11.302;2022-09-09T17:01:00;2.35;;;1.50;;
33162;SDS011;29282;45.656;11.302;2022-09-09T17:03:28;1.90;;;1.40;;
33162;SDS011;29282;45.656;11.302;2022-09-09T17:05:57;1.70;;;1.35;;
33162;SDS011;29282;45.656;11.302;2022-09-09T17:08:28;3.55;;;1.40;;
33162;SDS011;29282;45.656;11.302;2022-09-09T17:10:56;2.50;;;1.60;;
33162;SDS011;29282;45.656;11.302;2022-09-09T17:13:22;2.97;;;1.60;;
33162;SDS011;29282;45.656;11.302;2022-09-09T17:15:51;3.22;;;1.55;;
33162;SDS011;29282;45.656;11.302;2022-09-09T17:18:17;2.92;;;1.50;;
33162;SDS011;29282;45.656;11.302;2022-09-09T17:20:43;2.60;;;1.42;;
33162;SDS011;29282;45.656;11.302;2022-09-09T17:23:09;2.08;;;1.50;;
33162;SDS011;29282;45.656;11.302;2022-09-09T17:25:36;2.03;;;1.40;;
33162;SDS011;29282;45.656;11.302;2022-09-09T17:28:03;1.42;;;1.30;;
33162;SDS011;29282;45.656;11.302;2022-09-09T17:30:38;2.05;;;1.30;;
33162;SDS011;29282;45.656;11.302;2022-09-09T17:33:04;1.58;;;1.40;;
33162;SDS011;29282;45.656;11.302;2022-09-09T17:35:30;3.90;;;1.58;;
33162;SDS011;29282;45.656;11.302;2022-09-09T17:37:56;4.50;;;1.70;;
33162;SDS011;29282;45.656;11.302;2022-09-09T17:40:21;1.90;;;1.42;;
33162;SDS011;29282;45.656;11.302;2022-09-09T17:42:47;2.15;;;1.33;;
33162;SDS011;29282;45.656;11.302;2022-09-09T17:45:13;4.15;;;1.40;;
33162;SDS011;29282;45.656;11.302;2022-09-09T17:47:39;4.72;;;1.42;;
33162;SDS011;29282;45.656;11.302;2022-09-09T17:50:05;3.08;;;1.50;;
33162;SDS011;29282;45.656;11.302;2022-09-09T17:52:31;2.47;;;1.30;;
33162;SDS011;29282;45.656;11.302;2022-09-09T17:54:57;2.47;;;1.55;;
33162;SDS011;29282;45.656;11.302;2022-09-09T17:57:23;4.57;;;1.40;;
33162;SDS011;29282;45.656;11.302;2022-09-09T17:59:48;2.75;;;1.45;;
33162;SDS011;29282;45.656;11.302;2022-09-09T18:02:14;1.98;;;1.40;;